Time;durP1;ratioP1;P1;durP2;ratioP2;P2;SDS_P1;SDS_P2;PMS_P1;PMS_P2;Temp;Humidity;BMP_temperature;BMP_pressure;BME280_temperature;BME280_humidity;BME280_pressure;Samples;Min_cycle;Max_cycle;Signal;HPM_P1;HPM_P2
2021/05/30 00:01:11;;;;;;;;;;;;;;;;;;2132529;59;1427;-67
2021/05/30 00:03:36;;;;;;;;;;;;;;;;;;2127943;66;1213;-67
2021/05/30 00:06:02;;;;;;;;;;;;;;;;;;2134869;66;1226;-68
2021/05/30 00:08:27;;;;;;;;;;;;;;;;;;2128059;67;1182;-68
2021/05/30 00:10:52;;;;;;;;;;;;;;;;;;2126981;67;1150;-67
2021/05/30 00:13:18;;;;;;;;;;;;;;;;;;2127655;66;1252;-68
2021/05/30 00:15:44;;;;;;;;;;;;;;;;;;2126677;59;1293;-67
2021/05/30 00:18:09;;;;;;;;;;;;;;;;;;2127530;67;1983;-67
2021/05/30 00:20:34;;;;;;;;;;;;;;;;;;2135149;66;1150;-68
2021/05/30 00:22:59;;;;;;;;;;;;;;;;;;2127212;67;1239;-67
2021/05/30 00:25:25;;;;;;;;;;;;;;;;;;2138276;66;1216;-67
2021/05/30 00:27:50;;;;;;;;;;;;;;;;;;2140258;59;1310;-67
2021/05/30 00:30:15;;;;;;;;;;;;;;;;;;2127663;59;1549;-67
2021/05/30 00:32:40;;;;;;;;;;;;;;;;;;2139774;59;1541;-67
2021/05/30 00:35:06;;;;;;;;;;;;;;;;;;2130393;66;1285;-67
2021/05/30 00:37:31;;;;;;;;;;;;;;;;;;2131261;66;1165;-67
2021/05/30 00:39:56;;;;;;;;;;;;;;;;;;2133903;66;1992;-68
2021/05/30 00:42:21;;;;;;;;;;;;;;;;;;2127820;67;1231;-67
2021/05/30 00:44:47;;;;;;;;;;;;;;;;;;2127666;67;1148;-67
2021/05/30 00:47:12;;;;;;;;;;;;;;;;;;2127042;67;1259;-67
2021/05/30 00:49:37;;;;;;;;;;;;;;;;;;2127306;67;1382;-67
2021/05/30 00:52:04;;;;;;;;;;;;;;;;;;2127454;67;1124;-68
2021/05/30 00:54:29;;;;;;;;;;;;;;;;;;2126832;67;1243;-67
2021/05/30 00:56:55;;;;;;;;;;;;;;;;;;2135427;66;1180;-68
2021/05/30 00:59:20;;;;;;;;;;;;;;;;;;2127157;67;1922;-68
2021/05/30 01:01:47;;;;;;;;;;;;;;;;;;2135283;66;1171;-68
2021/05/30 01:04:13;;;;;;;;;;;;;;;;;;2127776;67;1255;-67
2021/05/30 01:06:39;;;;;;;;;;;;;;;;;;2134277;59;1274;-68
2021/05/30 01:09:05;;;;;;;;;;;;;;;;;;2128345;67;1255;-68
2021/05/30 01:11:31;;;;;;;;;;;;;;;;;;2134346;59;1224;-68
2021/05/30 01:13:57;;;;;;;;;;;;;;;;;;2127627;67;1202;-68
2021/05/30 01:16:22;;;;;;;;;;;;;;;;;;2128224;59;1562;-68
2021/05/30 01:18:49;;;;;;;;;;;;;;;;;;2127826;67;1933;-68
2021/05/30 01:21:15;;;;;;;;;;;;;;;;;;2127919;67;1243;-68
2021/05/30 01:23:40;;;;;;;;;;;;;;;;;;2127490;59;1200;-68
2021/05/30 01:26:06;;;;;;;;;;;;;;;;;;2139189;66;1296;-67
2021/05/30 01:28:31;;;;;;;;;;;;;;;;;;2127120;67;1211;-68
2021/05/30 01:30:56;;;;;;;;;;;;;;;;;;2126535;67;1671;-68
2021/05/30 01:33:21;;;;;;;;;;;;;;;;;;2126181;67;1337;-68
2021/05/30 01:35:46;;;;;;;;;;;;;;;;;;2133449;66;1155;-68
2021/05/30 01:38:12;;;;;;;;;;;;;;;;;;2127918;66;1926;-68
2021/05/30 01:40:38;;;;;;;;;;;;;;;;;;2127391;67;1129;-67
2021/05/30 01:43:03;;;;;;;;;;;;;;;;;;2128279;67;1279;-68
2021/05/30 01:45:30;;;;;;;;;;;;;;;;;;2128021;67;1230;-68
2021/05/30 01:47:55;;;;;;;;;;;;;;;;;;2127143;59;1392;-68
2021/05/30 01:50:21;;;;;;;;;;;;;;;;;;2128264;67;1147;-68
2021/05/30 01:52:47;;;;;;;;;;;;;;;;;;2128348;67;1912;-68
2021/05/30 01:55:21;;;;;;;;;;;;;;;;;;2140353;59;1315;-67
2021/05/30 01:57:48;;;;;;;;;;;;;;;;;;2131456;66;1228;-68
2021/05/30 02:00:13;;;;;;;;;;;;;;;;;;2140373;66;1937;-67
2021/05/30 02:02:39;;;;;;;;;;;;;;;;;;2134439;66;1292;-68
2021/05/30 02:05:05;;;;;;;;;;;;;;;;;;2126027;67;1180;-67
2021/05/30 02:07:31;;;;;;;;;;;;;;;;;;2127199;67;1239;-67
2021/05/30 02:09:57;;;;;;;;;;;;;;;;;;2125944;67;1265;-68
2021/05/30 02:12:23;;;;;;;;;;;;;;;;;;2127066;59;1172;-67
2021/05/30 02:14:48;;;;;;;;;;;;;;;;;;2127337;59;1310;-68
2021/05/30 02:17:14;;;;;;;;;;;;;;;;;;2127627;67;1260;-68
2021/05/30 02:19:39;;;;;;;;;;;;;;;;;;2127517;67;1989;-67
2021/05/30 02:22:04;;;;;;;;;;;;;;;;;;2139155;66;1145;-68
2021/05/30 02:24:29;;;;;;;;;;;;;;;;;;2127223;59;1227;-67
2021/05/30 02:26:55;;;;;;;;;;;;;;;;;;2139570;66;1702;-68
2021/05/30 02:29:23;;;;;;;;;;;;;;;;;;2127717;67;1327;-68
2021/05/30 02:31:49;;;;;;;;;;;;;;;;;;2128126;67;1141;-67
2021/05/30 02:34:14;;;;;;;;;;;;;;;;;;2128881;59;1349;-67
2021/05/30 02:36:39;;;;;;;;;;;;;;;;;;2132974;66;1151;-68
2021/05/30 02:39:04;;;;;;;;;;;;;;;;;;2129259;66;1921;-68
2021/05/30 02:41:29;;;;;;;;;;;;;;;;;;2127513;67;1212;-68
2021/05/30 02:43:54;;;;;;;;;;;;;;;;;;2128416;67;1282;-68
2021/05/30 02:46:20;;;;;;;;;;;;;;;;;;2128702;66;1266;-67
2021/05/30 02:48:45;;;;;;;;;;;;;;;;;;2128426;66;1205;-67
2021/05/30 02:51:10;;;;;;;;;;;;;;;;;;2141579;66;1215;-67
2021/05/30 02:53:35;;;;;;;;;;;;;;;;;;2127662;67;1254;-68
2021/05/30 02:56:01;;;;;;;;;;;;;;;;;;2126711;67;1173;-67
2021/05/30 02:58:28;;;;;;;;;;;;;;;;;;2134449;67;1977;-67
2021/05/30 03:00:54;;;;;;;;;;;;;;;;;;2126878;67;1169;-68
2021/05/30 03:03:19;;;;;;;;;;;;;;;;;;2134537;67;1357;-68
2021/05/30 03:05:44;;;;;;;;;;;;;;;;;;2127518;67;1211;-68
2021/05/30 03:08:09;;;;;;;;;;;;;;;;;;2129419;59;1386;-67
2021/05/30 03:10:35;;;;;;;;;;;;;;;;;;2126648;67;1085;-67
2021/05/30 03:13:00;;;;;;;;;;;;;;;;;;2135169;67;1184;-67
2021/05/30 03:15:25;;;;;;;;;;;;;;;;;;2126506;59;2024;-67
2021/05/30 03:17:50;;;;;;;;;;;;;;;;;;2138795;59;1586;-68
2021/05/30 03:20:16;;;;;;;;;;;;;;;;;;2126129;67;1927;-68
2021/05/30 03:22:41;;;;;;;;;;;;;;;;;;2127243;59;1357;-67
2021/05/30 03:25:07;;;;;;;;;;;;;;;;;;2128229;66;1287;-67
2021/05/30 03:27:32;;;;;;;;;;;;;;;;;;2126798;67;1171;-67
2021/05/30 03:29:57;;;;;;;;;;;;;;;;;;2127065;67;1359;-68
2021/05/30 03:32:23;;;;;;;;;;;;;;;;;;2127370;59;1299;-67
2021/05/30 03:34:48;;;;;;;;;;;;;;;;;;2127833;67;1280;-67
2021/05/30 03:37:13;;;;;;;;;;;;;;;;;;2127675;67;1255;-67
2021/05/30 03:39:41;;;;;;;;;;;;;;;;;;2133762;67;2017;-67
2021/05/30 03:42:09;;;;;;;;;;;;;;;;;;2128307;60;1993;-67
2021/05/30 03:44:34;;;;;;;;;;;;;;;;;;2127234;67;1285;-68
2021/05/30 03:47:00;;;;;;;;;;;;;;;;;;2127576;59;1193;-68
2021/05/30 03:49:25;;;;;;;;;;;;;;;;;;2127797;67;1211;-67
2021/05/30 03:51:50;;;;;;;;;;;;;;;;;;2127347;67;1171;-67
2021/05/30 03:54:15;;;;;;;;;;;;;;;;;;2127594;67;1342;-67
2021/05/30 03:56:40;;;;;;;;;;;;;;;;;;2126740;67;1762;-67
2021/05/30 03:59:06;;;;;;;;;;;;;;;;;;2135208;66;1929;-68
2021/05/30 04:01:31;;;;;;;;;;;;;;;;;;2127617;67;1215;-67
2021/05/30 04:03:56;;;;;;;;;;;;;;;;;;2128634;67;1207;-67
2021/05/30 04:06:22;;;;;;;;;;;;;;;;;;2140105;59;2129;-67
2021/05/30 04:08:47;;;;;;;;;;;;;;;;;;2126998;66;1272;-68
2021/05/30 04:11:13;;;;;;;;;;;;;;;;;;2127696;67;1189;-67
2021/05/30 04:13:38;;;;;;;;;;;;;;;;;;2128127;67;1273;-67
2021/05/30 04:16:03;;;;;;;;;;;;;;;;;;2129468;59;1376;-67
2021/05/30 04:18:28;;;;;;;;;;;;;;;;;;2128249;66;2258;-67
2021/05/30 04:20:54;;;;;;;;;;;;;;;;;;2140279;59;1456;-67
2021/05/30 04:23:19;;;;;;;;;;;;;;;;;;2128803;59;1172;-67
2021/05/30 04:25:44;;;;;;;;;;;;;;;;;;2129718;59;2214;-68
2021/05/30 04:28:09;;;;;;;;;;;;;;;;;;2128852;59;1392;-69
2021/05/30 04:30:35;;;;;;;;;;;;;;;;;;2130322;59;1316;-67
2021/05/30 04:33:00;;;;;;;;;;;;;;;;;;2129528;59;1290;-69
2021/05/30 04:35:25;;;;;;;;;;;;;;;;;;2130923;59;1153;-68
2021/05/30 04:37:50;;;;;;;;;;;;;;;;;;2128299;67;1173;-67
2021/05/30 04:40:17;;;;;;;;;;;;;;;;;;2136803;66;1928;-68
2021/05/30 04:42:42;;;;;;;;;;;;;;;;;;2128933;59;1253;-69
2021/05/30 04:45:08;;;;;;;;;;;;;;;;;;2130114;67;1292;-68
2021/05/30 04:47:33;;;;;;;;;;;;;;;;;;2141228;66;1205;-68
2021/05/30 04:49:59;;;;;;;;;;;;;;;;;;2130320;66;1612;-68
2021/05/30 04:52:24;;;;;;;;;;;;;;;;;;2138644;66;1279;-67
2021/05/30 04:54:49;;;;;;;;;;;;;;;;;;2129638;67;1258;-68
2021/05/30 04:57:14;;;;;;;;;;;;;;;;;;2128723;67;1231;-68
2021/05/30 04:59:40;;;;;;;;;;;;;;;;;;2130096;59;1969;-67
2021/05/30 05:02:05;;;;;;;;;;;;;;;;;;2129202;67;1172;-68
2021/05/30 05:04:30;;;;;;;;;;;;;;;;;;2128917;67;1280;-69
2021/05/30 05:06:56;;;;;;;;;;;;;;;;;;2128490;59;1172;-68
2021/05/30 05:09:21;;;;;;;;;;;;;;;;;;2135333;66;1191;-69
2021/05/30 05:11:46;;;;;;;;;;;;;;;;;;2129284;66;1206;-69
2021/05/30 05:14:11;;;;;;;;;;;;;;;;;;2128988;67;1239;-69
2021/05/30 05:16:37;;;;;;;;;;;;;;;;;;2128855;59;1289;-69
2021/05/30 05:19:02;;;;;;;;;;;;;;;;;;2129465;66;1996;-69
2021/05/30 05:21:28;;;;;;;;;;;;;;;;;;2130330;67;1152;-68
2021/05/30 05:23:54;;;;;;;;;;;;;;;;;;2130245;59;1195;-69
2021/05/30 05:26:19;;;;;;;;;;;;;;;;;;2130301;67;1166;-69
2021/05/30 05:28:44;;;;;;;;;;;;;;;;;;2130101;67;1405;-68
2021/05/30 05:31:10;;;;;;;;;;;;;;;;;;2129505;67;1368;-69
2021/05/30 05:33:35;;;;;;;;;;;;;;;;;;2129434;59;1379;-69
2021/05/30 05:36:00;;;;;;;;;;;;;;;;;;2136217;66;1208;-68
2021/05/30 05:38:25;;;;;;;;;;;;;;;;;;2128002;67;1932;-68
2021/05/30 05:40:50;;;;;;;;;;;;;;;;;;2129097;67;1093;-68
2021/05/30 05:43:16;;;;;;;;;;;;;;;;;;2128419;67;1271;-68
2021/05/30 05:45:41;;;;;;;;;;;;;;;;;;2128977;67;1155;-69
2021/05/30 05:48:14;;;;;;;;;;;;;;;;;;2130130;59;1200;-69
2021/05/30 05:50:40;;;;;;;;;;;;;;;;;;2130165;67;1222;-68
2021/05/30 05:53:05;;;;;;;;;;;;;;;;;;2129453;67;1316;-69
2021/05/30 05:55:31;;;;;;;;;;;;;;;;;;2142578;66;1176;-70
2021/05/30 05:57:56;;;;;;;;;;;;;;;;;;2129551;67;1191;-67
2021/05/30 06:00:22;;;;;;;;;;;;;;;;;;2129498;59;1936;-69
2021/05/30 06:02:49;;;;;;;;;;;;;;;;;;2128464;67;1226;-68
2021/05/30 06:05:18;;;;;;;;;;;;;;;;;;2133971;66;1240;-69
2021/05/30 06:07:43;;;;;;;;;;;;;;;;;;2128762;67;1155;-70
2021/05/30 06:10:09;;;;;;;;;;;;;;;;;;2130097;67;1378;-68
2021/05/30 06:12:34;;;;;;;;;;;;;;;;;;2128133;67;1203;-69
2021/05/30 06:14:59;;;;;;;;;;;;;;;;;;2129893;59;1266;-70
2021/05/30 06:17:24;;;;;;;;;;;;;;;;;;2129359;67;1044;-70
2021/05/30 06:19:49;;;;;;;;;;;;;;;;;;2129056;59;1930;-70
2021/05/30 06:22:17;;;;;;;;;;;;;;;;;;2134403;66;1153;-67
2021/05/30 06:24:42;;;;;;;;;;;;;;;;;;2128663;59;1696;-68
2021/05/30 06:27:08;;;;;;;;;;;;;;;;;;2133807;59;1189;-69
2021/05/30 06:29:33;;;;;;;;;;;;;;;;;;2128118;67;1326;-68
2021/05/30 06:31:58;;;;;;;;;;;;;;;;;;2129223;67;1141;-69
2021/05/30 06:34:23;;;;;;;;;;;;;;;;;;2127858;59;1572;-68
2021/05/30 06:36:50;;;;;;;;;;;;;;;;;;2136595;66;1192;-70
2021/05/30 06:39:15;;;;;;;;;;;;;;;;;;2128460;67;1937;-69
2021/05/30 06:41:40;;;;;;;;;;;;;;;;;;2136515;66;1156;-69
2021/05/30 06:44:06;;;;;;;;;;;;;;;;;;2128628;67;1651;-69
2021/05/30 06:46:32;;;;;;;;;;;;;;;;;;2136252;66;1032;-70
2021/05/30 06:48:57;;;;;;;;;;;;;;;;;;2128116;67;1168;-68
2021/05/30 06:51:23;;;;;;;;;;;;;;;;;;2127968;67;1357;-70
2021/05/30 06:53:49;;;;;;;;;;;;;;;;;;2128425;67;1265;-67
2021/05/30 06:56:15;;;;;;;;;;;;;;;;;;2127822;67;1888;-69
2021/05/30 06:58:40;;;;;;;;;;;;;;;;;;2129202;67;1927;-69
2021/05/30 07:01:06;;;;;;;;;;;;;;;;;;2135423;67;1204;-69
2021/05/30 07:03:31;;;;;;;;;;;;;;;;;;2128540;67;1294;-70
2021/05/30 07:05:57;;;;;;;;;;;;;;;;;;2130465;67;1239;-69
2021/05/30 07:08:22;;;;;;;;;;;;;;;;;;2131494;59;1856;-70
2021/05/30 07:10:47;;;;;;;;;;;;;;;;;;2128406;67;1962;-70
2021/05/30 07:13:12;;;;;;;;;;;;;;;;;;2140993;67;1379;-68
2021/05/30 07:15:38;;;;;;;;;;;;;;;;;;2129591;59;1425;-68
2021/05/30 07:18:03;;;;;;;;;;;;;;;;;;2128970;67;1112;-68
2021/05/30 07:20:28;;;;;;;;;;;;;;;;;;2129365;67;1925;-69
2021/05/30 07:22:53;;;;;;;;;;;;;;;;;;2136718;59;1226;-69
2021/05/30 07:25:19;;;;;;;;;;;;;;;;;;2128364;59;1987;-70
2021/05/30 07:27:44;;;;;;;;;;;;;;;;;;2144943;66;1451;-70
2021/05/30 07:30:09;;;;;;;;;;;;;;;;;;2127612;67;1211;-70
2021/05/30 07:32:35;;;;;;;;;;;;;;;;;;2127384;67;1325;-69
2021/05/30 07:35:00;;;;;;;;;;;;;;;;;;2128408;67;1289;-70
2021/05/30 07:37:25;;;;;;;;;;;;;;;;;;2129076;67;1056;-70
2021/05/30 07:39:50;;;;;;;;;;;;;;;;;;2128268;67;1901;-70
2021/05/30 07:42:15;;;;;;;;;;;;;;;;;;2128939;59;1172;-70
2021/05/30 07:44:41;;;;;;;;;;;;;;;;;;2128764;67;1284;-70
2021/05/30 07:47:06;;;;;;;;;;;;;;;;;;2129215;59;1312;-68
2021/05/30 07:49:31;;;;;;;;;;;;;;;;;;2129925;66;1150;-69
2021/05/30 07:51:57;;;;;;;;;;;;;;;;;;2128325;67;1153;-69
2021/05/30 07:54:22;;;;;;;;;;;;;;;;;;2127695;67;1209;-71
2021/05/30 07:56:47;;;;;;;;;;;;;;;;;;2125120;59;3358;-70
2021/05/30 07:59:13;;;;;;;;;;;;;;;;;;2126139;67;1993;-70
2021/05/30 08:01:38;;;;;;;;;;;;;;;;;;2126534;60;1276;-70
2021/05/30 08:04:03;;;;;;;;;;;;;;;;;;2127642;67;2523;-69
2021/05/30 08:06:32;;;;;;;;;;;;;;;;;;2127172;59;2689;-68
2021/05/30 08:08:58;;;;;;;;;;;;;;;;;;2127054;67;1892;-70
2021/05/30 08:11:23;;;;;;;;;;;;;;;;;;2125957;67;1151;-68
2021/05/30 08:13:49;;;;;;;;;;;;;;;;;;2127698;67;1410;-69
2021/05/30 08:16:14;;;;;;;;;;;;;;;;;;2127991;59;1385;-70
2021/05/30 08:18:39;;;;;;;;;;;;;;;;;;2137441;59;1924;-68
2021/05/30 08:21:05;;;;;;;;;;;;;;;;;;2127117;67;1168;-70
2021/05/30 08:23:30;;;;;;;;;;;;;;;;;;2127691;59;1889;-70
2021/05/30 08:25:56;;;;;;;;;;;;;;;;;;2124884;67;1165;-68
2021/05/30 08:28:21;;;;;;;;;;;;;;;;;;2127731;59;1480;-70
2021/05/30 08:30:46;;;;;;;;;;;;;;;;;;2126776;67;1231;-69
2021/05/30 08:33:11;;;;;;;;;;;;;;;;;;2126350;59;1276;-70
2021/05/30 08:35:36;;;;;;;;;;;;;;;;;;2127435;67;1176;-68
2021/05/30 08:38:02;;;;;;;;;;;;;;;;;;2127415;67;1443;-66
2021/05/30 08:40:27;;;;;;;;;;;;;;;;;;2138507;59;1996;-68
2021/05/30 08:42:52;;;;;;;;;;;;;;;;;;2126207;67;1358;-67
2021/05/30 08:45:17;;;;;;;;;;;;;;;;;;2126744;67;1158;-68
2021/05/30 08:47:43;;;;;;;;;;;;;;;;;;2127397;66;1204;-68
2021/05/30 08:50:08;;;;;;;;;;;;;;;;;;2139982;59;1771;-67
2021/05/30 08:52:34;;;;;;;;;;;;;;;;;;2127286;59;1385;-68
2021/05/30 08:55:00;;;;;;;;;;;;;;;;;;2126767;66;1359;-66
2021/05/30 08:57:25;;;;;;;;;;;;;;;;;;2125553;59;1381;-67
2021/05/30 08:59:52;;;;;;;;;;;;;;;;;;2127008;67;1937;-67
2021/05/30 09:02:17;;;;;;;;;;;;;;;;;;2126164;59;1402;-69
2021/05/30 09:04:47;;;;;;;;;;;;;;;;;;2126335;67;1457;-70
2021/05/30 09:07:12;;;;;;;;;;;;;;;;;;2126357;59;3009;-67
2021/05/30 09:09:45;;;;;;;;;;;;;;;;;;2126721;59;1901;-67
2021/05/30 09:12:20;;;;;;;;;;;;;;;;;;2127154;59;1393;-66
2021/05/30 09:14:48;;;;;;;;;;;;;;;;;;2126116;59;1302;-68
2021/05/30 09:17:13;;;;;;;;;;;;;;;;;;2126755;67;1077;-68
2021/05/30 09:19:46;;;;;;;;;;;;;;;;;;2138084;59;2014;-68
2021/05/30 09:22:17;;;;;;;;;;;;;;;;;;2127506;67;1140;-67
2021/05/30 09:24:52;;;;;;;;;;;;;;;;;;2125379;59;2054;-66
2021/05/30 09:27:20;;;;;;;;;;;;;;;;;;2126936;67;1390;-67
2021/05/30 09:30:05;;;;;;;;;;;;;;;;;;2126477;67;1373;-67
2021/05/30 09:32:31;;;;;;;;;;;;;;;;;;2127109;59;1404;-65
2021/05/30 09:35:01;;;;;;;;;;;;;;;;;;2126583;67;1320;-67
2021/05/30 09:37:27;;;;;;;;;;;;;;;;;;2127064;67;1143;-66
2021/05/30 09:39:52;;;;;;;;;;;;;;;;;;2138357;59;2195;-65
2021/05/30 09:42:36;;;;;;;;;;;;;;;;;;2126491;59;1656;-66
2021/05/30 09:45:03;;;;;;;;;;;;;;;;;;2127030;59;1972;-65
2021/05/30 09:47:31;;;;;;;;;;;;;;;;;;2127696;59;1294;-67
2021/05/30 09:49:56;;;;;;;;;;;;;;;;;;2126017;66;2222;-68
2021/05/30 09:52:35;;;;;;;;;;;;;;;;;;2126108;67;1366;-67
2021/05/30 09:55:10;;;;;;;;;;;;;;;;;;2123442;59;1368;-65
2021/05/30 09:57:35;;;;;;;;;;;;;;;;;;2126379;67;1553;-68
2021/05/30 10:00:01;;;;;;;;;;;;;;;;;;2127029;59;1947;-69
2021/05/30 10:02:26;;;;;;;;;;;;;;;;;;2127331;67;1173;-69
2021/05/30 10:04:51;;;;;;;;;;;;;;;;;;2125361;67;1304;-68
2021/05/30 10:07:16;;;;;;;;;;;;;;;;;;2125698;59;2346;-69
2021/05/30 10:09:42;;;;;;;;;;;;;;;;;;2126732;59;2679;-69
2021/05/30 10:12:08;;;;;;;;;;;;;;;;;;2139882;66;1214;-66
2021/05/30 10:14:35;;;;;;;;;;;;;;;;;;2127749;67;1256;-67
2021/05/30 10:17:00;;;;;;;;;;;;;;;;;;2130019;59;1466;-68
2021/05/30 10:19:31;;;;;;;;;;;;;;;;;;2126856;66;1929;-69
2021/05/30 10:21:58;;;;;;;;;;;;;;;;;;2125437;67;1231;-68
2021/05/30 10:24:23;;;;;;;;;;;;;;;;;;2125125;59;1407;-67
2021/05/30 10:27:07;;;;;;;;;;;;;;;;;;2144305;54;2040;-69
2021/05/30 10:29:33;;;;;;;;;;;;;;;;;;2145252;58;1314;-69
2021/05/30 10:32:13;;;;;;;;;;;;;;;;;;2145952;66;1153;-69
2021/05/30 10:34:38;;;;;;;;;;;;;;;;;;2145533;58;1243;-69
2021/05/30 10:37:09;;;;;;;;;;;;;;;;;;2142966;66;1653;-69
2021/05/30 10:39:34;;;;;;;;;;;;;;;;;;2142303;66;1959;-69
2021/05/30 10:42:15;;;;;;;;;;;;;;;;;;2141829;66;1163;-69
2021/05/30 10:44:48;;;;;;;;;;;;;;;;;;2143838;59;1447;-69
2021/05/30 10:47:13;;;;;;;;;;;;;;;;;;2141778;59;1456;-69
2021/05/30 10:49:58;;;;;;;;;;;;;;;;;;2139081;66;1196;-69
2021/05/30 10:52:33;;;;;;;;;;;;;;;;;;2142312;66;1574;-69
2021/05/30 10:55:17;;;;;;;;;;;;;;;;;;2140801;66;1202;-70
2021/05/30 10:57:47;;;;;;;;;;;;;;;;;;2141942;66;1144;-69
2021/05/30 11:00:20;;;;;;;;;;;;;;;;;;2141335;59;1916;-69
2021/05/30 11:03:02;;;;;;;;;;;;;;;;;;2141162;66;1255;-70
2021/05/30 11:05:39;;;;;;;;;;;;;;;;;;2142033;59;1277;-69
2021/05/30 11:08:04;;;;;;;;;;;;;;;;;;2141908;59;2331;-70
2021/05/30 11:10:29;;;;;;;;;;;;;;;;;;2142598;59;2642;-69
2021/05/30 11:12:55;;;;;;;;;;;;;;;;;;2142551;66;2666;-69
2021/05/30 11:15:24;;;;;;;;;;;;;;;;;;2143249;59;1243;-70
2021/05/30 11:17:51;;;;;;;;;;;;;;;;;;2141789;66;1344;-69
2021/05/30 11:20:18;;;;;;;;;;;;;;;;;;2138398;67;1928;-68
2021/05/30 11:22:45;;;;;;;;;;;;;;;;;;2140796;66;1242;-70
2021/05/30 11:25:10;;;;;;;;;;;;;;;;;;2139248;59;1593;-69
2021/05/30 11:27:58;;;;;;;;;;;;;;;;;;2141487;66;1240;-69
2021/05/30 11:30:33;;;;;;;;;;;;;;;;;;2143597;66;1196;-69
2021/05/30 11:32:59;;;;;;;;;;;;;;;;;;2142992;59;1384;-69
2021/05/30 11:35:24;;;;;;;;;;;;;;;;;;2142594;66;1256;-70
2021/05/30 11:37:49;;;;;;;;;;;;;;;;;;2142727;66;1283;-69
2021/05/30 11:40:18;;;;;;;;;;;;;;;;;;2145062;66;1980;-69
2021/05/30 11:42:46;;;;;;;;;;;;;;;;;;2143902;66;1233;-69
2021/05/30 11:45:28;;;;;;;;;;;;;;;;;;2142412;66;1336;-70
2021/05/30 11:48:02;;;;;;;;;;;;;;;;;;2143307;59;1353;-69
2021/05/30 11:50:31;;;;;;;;;;;;;;;;;;2143069;66;1347;-69
2021/05/30 11:52:57;;;;;;;;;;;;;;;;;;2141947;66;1694;-69
2021/05/30 11:55:22;;;;;;;;;;;;;;;;;;2142690;66;1242;-70
2021/05/30 11:57:47;;;;;;;;;;;;;;;;;;2142050;59;1458;-69
2021/05/30 12:00:12;;;;;;;;;;;;;;;;;;2143541;66;2002;-69
2021/05/30 12:02:38;;;;;;;;;;;;;;;;;;2143362;59;1398;-69
2021/05/30 12:05:11;;;;;;;;;;;;;;;;;;2144504;66;1256;-69
2021/05/30 12:07:36;;;;;;;;;;;;;;;;;;2144142;66;1183;-70
2021/05/30 12:10:12;;;;;;;;;;;;;;;;;;2142091;59;2438;-69
2021/05/30 12:12:40;;;;;;;;;;;;;;;;;;2143117;59;2182;-67
2021/05/30 12:15:05;;;;;;;;;;;;;;;;;;2141053;59;1342;-69
2021/05/30 12:17:30;;;;;;;;;;;;;;;;;;2143284;66;1180;-69
2021/05/30 12:19:56;;;;;;;;;;;;;;;;;;2143366;66;1933;-69
2021/05/30 12:22:22;;;;;;;;;;;;;;;;;;2143078;66;1200;-69
2021/05/30 12:24:47;;;;;;;;;;;;;;;;;;2140843;66;1836;-70
2021/05/30 12:27:13;;;;;;;;;;;;;;;;;;2142923;59;1543;-70
2021/05/30 12:29:39;;;;;;;;;;;;;;;;;;2142073;59;1485;-69
2021/05/30 12:32:05;;;;;;;;;;;;;;;;;;2142433;59;1843;-70
2021/05/30 12:34:34;;;;;;;;;;;;;;;;;;2141905;66;1687;-69
2021/05/30 12:36:59;;;;;;;;;;;;;;;;;;2142124;59;1929;-70
2021/05/30 12:39:25;;;;;;;;;;;;;;;;;;2141693;59;1960;-70
2021/05/30 12:41:58;;;;;;;;;;;;;;;;;;2143384;66;1336;-70
2021/05/30 12:44:31;;;;;;;;;;;;;;;;;;2142536;66;1330;-69
2021/05/30 12:46:58;;;;;;;;;;;;;;;;;;2142884;66;1557;-71
2021/05/30 12:49:24;;;;;;;;;;;;;;;;;;2142650;66;1827;-70
2021/05/30 12:51:59;;;;;;;;;;;;;;;;;;2139110;66;1644;-69
2021/05/30 12:54:25;;;;;;;;;;;;;;;;;;2140861;66;1203;-69
2021/05/30 12:56:51;;;;;;;;;;;;;;;;;;2139389;66;1397;-69
2021/05/30 12:59:20;;;;;;;;;;;;;;;;;;2142647;66;1953;-70
2021/05/30 13:01:56;;;;;;;;;;;;;;;;;;2142692;59;1863;-70
2021/05/30 13:04:25;;;;;;;;;;;;;;;;;;2144087;59;1592;-71
2021/05/30 13:06:51;;;;;;;;;;;;;;;;;;2144381;59;1427;-69
2021/05/30 13:09:16;;;;;;;;;;;;;;;;;;2142068;66;2704;-70
2021/05/30 13:11:41;;;;;;;;;;;;;;;;;;2141177;59;2701;-70
2021/05/30 13:14:07;;;;;;;;;;;;;;;;;;2142275;59;2301;-69
2021/05/30 13:16:32;;;;;;;;;;;;;;;;;;2144147;59;1311;-69
2021/05/30 13:18:57;;;;;;;;;;;;;;;;;;2143590;66;1923;-70
2021/05/30 13:21:23;;;;;;;;;;;;;;;;;;2144826;66;1915;-70
2021/05/30 13:24:02;;;;;;;;;;;;;;;;;;2143236;66;1541;-70
2021/05/30 13:26:27;;;;;;;;;;;;;;;;;;2136615;59;1174;-70
2021/05/30 13:28:52;;;;;;;;;;;;;;;;;;2142635;66;1468;-69
2021/05/30 13:31:18;;;;;;;;;;;;;;;;;;2143176;66;1083;-69
2021/05/30 13:33:44;;;;;;;;;;;;;;;;;;2143914;66;1720;-70
2021/05/30 13:36:10;;;;;;;;;;;;;;;;;;2142927;66;1243;-69
2021/05/30 13:38:36;;;;;;;;;;;;;;;;;;2142456;59;1923;-70
2021/05/30 13:41:02;;;;;;;;;;;;;;;;;;2142692;66;1195;-70
2021/05/30 13:43:28;;;;;;;;;;;;;;;;;;2142637;59;1806;-70
2021/05/30 13:45:53;;;;;;;;;;;;;;;;;;2142253;59;2015;-70
2021/05/30 13:48:18;;;;;;;;;;;;;;;;;;2138188;59;1963;-69
2021/05/30 13:50:45;;;;;;;;;;;;;;;;;;2143141;66;1270;-69
2021/05/30 13:53:11;;;;;;;;;;;;;;;;;;2143428;59;1979;-69
2021/05/30 13:55:37;;;;;;;;;;;;;;;;;;2139487;59;1556;-70
2021/05/30 13:58:03;;;;;;;;;;;;;;;;;;2142779;59;1894;-69
2021/05/30 14:00:30;;;;;;;;;;;;;;;;;;2143315;59;1919;-70
2021/05/30 14:02:55;;;;;;;;;;;;;;;;;;2143273;59;1750;-70
2021/05/30 14:05:20;;;;;;;;;;;;;;;;;;2142695;66;1341;-69
2021/05/30 14:07:46;;;;;;;;;;;;;;;;;;2142956;66;1336;-70
2021/05/30 14:10:12;;;;;;;;;;;;;;;;;;2142736;59;2116;-70
2021/05/30 14:12:37;;;;;;;;;;;;;;;;;;2139170;59;2549;-69
2021/05/30 14:15:03;;;;;;;;;;;;;;;;;;2143011;59;1672;-70
2021/05/30 14:17:28;;;;;;;;;;;;;;;;;;2143974;66;1354;-70
2021/05/30 14:19:53;;;;;;;;;;;;;;;;;;2142097;59;1987;-70
2021/05/30 14:22:19;;;;;;;;;;;;;;;;;;2142969;66;1141;-70
2021/05/30 14:24:44;;;;;;;;;;;;;;;;;;2141820;66;1150;-70
2021/05/30 14:27:09;;;;;;;;;;;;;;;;;;2140926;59;1309;-69
2021/05/30 14:29:34;;;;;;;;;;;;;;;;;;2143659;59;1273;-71
2021/05/30 14:32:00;;;;;;;;;;;;;;;;;;2143945;59;1243;-70
2021/05/30 14:34:25;;;;;;;;;;;;;;;;;;2144358;59;1151;-70
2021/05/30 14:36:50;;;;;;;;;;;;;;;;;;2142512;59;1644;-70
2021/05/30 14:39:16;;;;;;;;;;;;;;;;;;2142712;59;1921;-69
2021/05/30 14:41:41;;;;;;;;;;;;;;;;;;2142698;66;1354;-71
2021/05/30 14:44:07;;;;;;;;;;;;;;;;;;2142990;66;1068;-70
2021/05/30 14:46:33;;;;;;;;;;;;;;;;;;2141943;66;1394;-70
2021/05/30 14:48:59;;;;;;;;;;;;;;;;;;2143577;66;1364;-69
2021/05/30 14:51:24;;;;;;;;;;;;;;;;;;2142834;66;1407;-69
2021/05/30 14:53:49;;;;;;;;;;;;;;;;;;2141771;66;1180;-70
2021/05/30 14:56:14;;;;;;;;;;;;;;;;;;2140079;66;1413;-69
2021/05/30 14:58:40;;;;;;;;;;;;;;;;;;2143478;59;1963;-70
2021/05/30 15:01:05;;;;;;;;;;;;;;;;;;2143871;66;1641;-69
2021/05/30 15:03:30;;;;;;;;;;;;;;;;;;2142616;66;1273;-70
2021/05/30 15:05:57;;;;;;;;;;;;;;;;;;2136921;59;2234;-70
2021/05/30 15:08:22;;;;;;;;;;;;;;;;;;2141751;59;2181;-71
2021/05/30 15:10:52;;;;;;;;;;;;;;;;;;2143193;66;1994;-69
2021/05/30 15:13:17;;;;;;;;;;;;;;;;;;2142066;59;3092;-69
2021/05/30 15:15:43;;;;;;;;;;;;;;;;;;2142514;59;1669;-70
2021/05/30 15:18:08;;;;;;;;;;;;;;;;;;2142355;66;1916;-70
2021/05/30 15:20:33;;;;;;;;;;;;;;;;;;2143682;59;1974;-70
2021/05/30 15:22:59;;;;;;;;;;;;;;;;;;2142988;66;1138;-71
2021/05/30 15:25:24;;;;;;;;;;;;;;;;;;2140295;59;2180;-69
2021/05/30 15:27:49;;;;;;;;;;;;;;;;;;2139074;67;1887;-69
2021/05/30 15:30:15;;;;;;;;;;;;;;;;;;2142745;66;1473;-70
2021/05/30 15:32:40;;;;;;;;;;;;;;;;;;2143668;59;1249;-69
2021/05/30 15:35:05;;;;;;;;;;;;;;;;;;2142652;66;1409;-71
2021/05/30 15:37:31;;;;;;;;;;;;;;;;;;2142462;66;1051;-70
2021/05/30 15:39:56;;;;;;;;;;;;;;;;;;2143426;66;1924;-70
2021/05/30 15:42:21;;;;;;;;;;;;;;;;;;2144027;66;1173;-70
2021/05/30 15:44:46;;;;;;;;;;;;;;;;;;2140950;59;1465;-70
2021/05/30 15:47:12;;;;;;;;;;;;;;;;;;2142758;59;1893;-71
2021/05/30 15:49:37;;;;;;;;;;;;;;;;;;2143355;66;1266;-70
2021/05/30 15:52:02;;;;;;;;;;;;;;;;;;2143600;66;1195;-70
2021/05/30 15:54:27;;;;;;;;;;;;;;;;;;2143508;66;1350;-70
2021/05/30 15:56:53;;;;;;;;;;;;;;;;;;2142125;59;1739;-71
2021/05/30 15:59:18;;;;;;;;;;;;;;;;;;2144391;66;1995;-71
2021/05/30 16:01:43;;;;;;;;;;;;;;;;;;2142729;66;1321;-70
2021/05/30 16:04:08;;;;;;;;;;;;;;;;;;2141411;66;1371;-70
2021/05/30 16:06:34;;;;;;;;;;;;;;;;;;2143686;66;1195;-69
2021/05/30 16:08:59;;;;;;;;;;;;;;;;;;2143675;66;1424;-70
2021/05/30 16:11:24;;;;;;;;;;;;;;;;;;2141530;66;1480;-70
2021/05/30 16:13:49;;;;;;;;;;;;;;;;;;2142855;59;2851;-70
2021/05/30 16:16:14;;;;;;;;;;;;;;;;;;2144058;59;1459;-70
2021/05/30 16:18:41;;;;;;;;;;;;;;;;;;2143096;59;1983;-69
2021/05/30 16:21:06;;;;;;;;;;;;;;;;;;2143706;66;1149;-70
2021/05/30 16:23:31;;;;;;;;;;;;;;;;;;2142662;66;1226;-70
2021/05/30 16:25:57;;;;;;;;;;;;;;;;;;2140911;59;1380;-70
2021/05/30 16:28:22;;;;;;;;;;;;;;;;;;2151048;53;2055;-69
2021/05/30 16:30:47;;;;;;;;;;;;;;;;;;2151000;58;1244;-68
2021/05/30 16:33:13;;;;;;;;;;;;;;;;;;2151617;58;1430;-69
2021/05/30 16:35:38;;;;;;;;;;;;;;;;;;2151833;58;1473;-69
2021/05/30 16:38:04;;;;;;;;;;;;;;;;;;2152545;66;1146;-68
2021/05/30 16:40:30;;;;;;;;;;;;;;;;;;2152385;66;1936;-69
2021/05/30 16:42:55;;;;;;;;;;;;;;;;;;2152557;59;1170;-69
2021/05/30 16:45:21;;;;;;;;;;;;;;;;;;2151983;58;1293;-68
2021/05/30 16:47:47;;;;;;;;;;;;;;;;;;2154661;66;1268;-68
2021/05/30 16:50:14;;;;;;;;;;;;;;;;;;2152635;66;1407;-69
2021/05/30 16:52:39;;;;;;;;;;;;;;;;;;2153456;66;1106;-69
2021/05/30 16:55:05;;;;;;;;;;;;;;;;;;2150425;66;1234;-69
2021/05/30 16:57:31;;;;;;;;;;;;;;;;;;2152591;66;1304;-69